createdAt,value
2018-05-16T00:00:15.457Z,62.20
2018-05-16T00:02:41.951Z,62.80
2018-05-16T00:05:08.342Z,61.60
2018-05-16T00:07:34.777Z,61.50
2018-05-16T00:10:01.372Z,62.20
2018-05-16T00:12:28.568Z,63.00
2018-05-16T00:14:55.042Z,62.30
2018-05-16T00:17:21.461Z,62.30
2018-05-16T00:19:47.906Z,62.50
2018-05-16T00:22:15.057Z,62.60
2018-05-16T00:24:41.489Z,62.50
2018-05-16T00:27:08.368Z,62.90
2018-05-16T00:29:35.641Z,62.90
2018-05-16T00:32:02.308Z,62.80
2018-05-16T00:34:28.793Z,61.10
2018-05-16T00:36:55.957Z,64.10
2018-05-16T00:39:22.366Z,64.10
2018-05-16T00:41:49.490Z,65.30
2018-05-16T00:44:15.890Z,65.30
2018-05-16T00:46:42.282Z,65.50
2018-05-16T00:49:09.421Z,66.20
2018-05-16T00:51:36.579Z,66.00
2018-05-16T00:54:03.765Z,66.00
2018-05-16T00:56:30.181Z,65.80
2018-05-16T00:58:56.557Z,65.90
2018-05-16T01:01:22.969Z,66.60
2018-05-16T01:03:49.376Z,67.00
2018-05-16T01:06:15.793Z,67.20
2018-05-16T01:08:42.953Z,68.10
2018-05-16T01:11:09.336Z,68.00
2018-05-16T01:13:36.021Z,67.50
2018-05-16T01:16:02.866Z,68.20
2018-05-16T01:18:30.009Z,67.50
2018-05-16T01:20:57.289Z,67.20
2018-05-16T01:23:23.747Z,67.20
2018-05-16T01:25:50.220Z,67.60
2018-05-16T01:28:17.406Z,67.50
2018-05-16T01:30:43.873Z,67.50
2018-05-16T01:33:10.559Z,68.00
2018-05-16T01:35:36.987Z,68.10
2018-05-16T01:38:04.141Z,68.00
2018-05-16T01:40:31.250Z,67.10
2018-05-16T01:42:57.710Z,67.10
2018-05-16T01:45:24.966Z,66.70
2018-05-16T01:47:52.280Z,66.60
2018-05-16T01:50:18.683Z,66.50
2018-05-16T01:52:45.110Z,66.20
2018-05-16T01:55:11.632Z,65.50
2018-05-16T01:57:38.885Z,65.70
2018-05-16T02:00:06.069Z,65.90
2018-05-16T02:02:32.486Z,65.90
2018-05-16T02:04:59.037Z,66.30
2018-05-16T02:07:25.444Z,66.60
2018-05-16T02:09:52.479Z,67.40
2018-05-16T02:12:19.723Z,69.10
2018-05-16T02:14:47.313Z,70.50
2018-05-16T02:17:13.714Z,70.50
2018-05-16T02:19:40.951Z,71.30
2018-05-16T02:22:07.416Z,71.30
2018-05-16T02:24:33.848Z,71.30
2018-05-16T02:27:00.231Z,72.70
2018-05-16T02:29:26.643Z,72.90
2018-05-16T02:31:53.324Z,73.90
2018-05-16T02:34:20.685Z,73.70
2018-05-16T02:36:48.066Z,75.70
2018-05-16T02:39:15.418Z,75.50
2018-05-16T02:41:41.829Z,75.30
2018-05-16T02:44:08.957Z,76.70
2018-05-16T02:46:35.432Z,76.50
2018-05-16T02:49:01.863Z,75.50
2018-05-16T02:51:29.054Z,74.50
2018-05-16T02:53:55.540Z,74.40
2018-05-16T02:56:22.664Z,76.50
2018-05-16T02:58:49.073Z,76.30
2018-05-16T03:01:15.515Z,76.30
2018-05-16T03:03:41.986Z,77.20
2018-05-16T03:06:09.161Z,76.20
2018-05-16T03:08:35.563Z,76.10
2018-05-16T03:11:02.681Z,77.10
2018-05-16T03:13:29.173Z,77.10
2018-05-16T03:15:55.620Z,77.00
2018-05-16T03:18:22.166Z,76.50
2018-05-16T03:20:48.578Z,75.40
2018-05-16T03:23:15.007Z,75.30
2018-05-16T03:25:41.464Z,76.00
2018-05-16T03:28:08.015Z,75.90
2018-05-16T03:30:34.502Z,76.60
2018-05-16T03:33:01.921Z,76.60
2018-05-16T03:35:28.356Z,76.50
2018-05-16T03:37:54.772Z,76.60
2018-05-16T03:40:21.233Z,77.20
2018-05-16T03:42:47.685Z,77.50
2018-05-16T03:45:14.866Z,78.20
2018-05-16T03:47:42.769Z,78.30
2018-05-16T03:50:09.981Z,78.80
2018-05-16T03:52:36.374Z,78.40
2018-05-16T03:55:03.555Z,79.00
2018-05-16T03:57:48.636Z,78.90
2018-05-16T04:00:33.545Z,78.80
2018-05-16T04:03:18.638Z,78.20
2018-05-16T04:05:45.782Z,78.50
2018-05-16T04:08:13.094Z,78.70
2018-05-16T04:10:39.785Z,78.60
2018-05-16T04:13:06.993Z,79.30
2018-05-16T04:15:33.465Z,79.30
2018-05-16T04:17:59.956Z,80.20
2018-05-16T04:20:26.497Z,79.40
2018-05-16T04:22:52.903Z,78.10
2018-05-16T04:25:19.323Z,80.00
2018-05-16T04:27:45.842Z,79.30
2018-05-16T04:30:12.273Z,80.00
2018-05-16T04:32:39.582Z,80.70
2018-05-16T04:35:06.002Z,80.60
2018-05-16T04:37:32.388Z,81.60
2018-05-16T04:39:59.526Z,80.30
2018-05-16T04:42:26.651Z,80.70
2018-05-16T04:44:53.259Z,80.60
2018-05-16T04:47:19.695Z,80.00
2018-05-16T04:49:46.137Z,79.70
2018-05-16T04:52:12.665Z,79.30
2018-05-16T04:54:39.110Z,79.30
2018-05-16T04:57:05.675Z,79.90
2018-05-16T04:59:33.575Z,80.30
2018-05-16T05:02:00.212Z,80.30
2018-05-16T05:04:26.637Z,79.80
2018-05-16T05:06:53.795Z,80.20
2018-05-16T05:09:20.388Z,80.10
2018-05-16T05:11:46.865Z,80.20
2018-05-16T05:14:13.605Z,80.40
2018-05-16T05:16:40.379Z,80.50
2018-05-16T05:19:07.057Z,79.90
2018-05-16T05:21:35.043Z,80.60
2018-05-16T05:24:01.931Z,80.50
2018-05-16T05:26:28.237Z,80.10
2018-05-16T05:28:54.762Z,80.10
2018-05-16T05:31:21.502Z,79.50
2018-05-16T05:33:48.225Z,79.20
2018-05-16T05:36:15.334Z,79.80
2018-05-16T05:38:41.773Z,79.80
2018-05-16T05:41:08.259Z,79.20
2018-05-16T05:43:34.821Z,79.50
2018-05-16T05:46:01.203Z,79.40
2018-05-16T05:48:28.692Z,78.30
2018-05-16T05:50:55.525Z,78.30
2018-05-16T05:53:21.940Z,78.50
2018-05-16T05:58:22.942Z,77.50
2018-05-16T06:00:49.802Z,77.00
2018-05-16T06:03:17.324Z,78.00
2018-05-16T06:05:45.786Z,77.50
2018-05-16T06:08:13.700Z,77.90
2018-05-16T06:10:40.482Z,77.90
2018-05-16T06:13:07.676Z,77.50
2018-05-16T06:15:34.364Z,77.50
2018-05-16T06:18:01.215Z,77.60
2018-05-16T06:20:28.565Z,77.40
2018-05-16T06:22:55.868Z,79.00
2018-05-16T06:25:22.253Z,78.30
2018-05-16T06:27:48.613Z,77.50
2018-05-16T06:30:15.039Z,76.70
2018-05-16T06:32:42.231Z,76.60
2018-05-16T06:35:09.398Z,75.70
2018-05-16T06:37:36.178Z,75.60
2018-05-16T06:40:03.392Z,74.00
2018-05-16T06:42:29.864Z,73.90
2018-05-16T06:44:56.247Z,73.60
2018-05-16T06:47:22.646Z,73.90
2018-05-16T06:49:49.137Z,73.50
2018-05-16T06:52:15.580Z,73.70
2018-05-16T06:54:42.699Z,70.90
2018-05-16T06:57:09.289Z,70.90
2018-05-16T06:59:35.686Z,70.20
2018-05-16T07:02:02.075Z,68.80
2018-05-16T07:04:28.529Z,69.30
2018-05-16T07:06:54.918Z,69.80
2018-05-16T07:09:21.322Z,69.80
2018-05-16T07:11:48.473Z,68.70
2018-05-16T07:14:14.869Z,68.70
2018-05-16T07:16:41.274Z,69.40
2018-05-16T07:19:07.703Z,69.30
2018-05-16T07:21:34.179Z,69.40
2018-05-16T07:24:00.742Z,70.00
2018-05-16T07:26:27.111Z,70.10
2018-05-16T07:28:53.534Z,70.30
2018-05-16T07:31:19.957Z,71.50
2018-05-16T07:33:46.407Z,71.00
2018-05-16T07:36:13.138Z,70.60
2018-05-16T07:38:39.570Z,71.50
2018-05-16T07:41:06.111Z,70.50
2018-05-16T07:43:33.311Z,71.70
2018-05-16T07:45:59.731Z,71.60
2018-05-16T07:48:26.154Z,71.00
2018-05-16T07:50:52.552Z,70.80
2018-05-16T07:53:19.057Z,71.60
2018-05-16T07:55:45.454Z,70.00
2018-05-16T07:58:12.174Z,70.50
2018-05-16T08:00:39.005Z,71.50
2018-05-16T08:03:05.436Z,71.50
2018-05-16T08:05:31.917Z,72.80
2018-05-16T08:07:58.325Z,72.50
2018-05-16T08:10:24.805Z,74.10
2018-05-16T08:12:51.916Z,76.30
2018-05-16T08:15:18.454Z,76.20
2018-05-16T08:17:44.856Z,76.30
2018-05-16T08:20:11.239Z,76.90
2018-05-16T08:22:37.679Z,77.80
2018-05-16T08:25:04.059Z,76.80
2018-05-16T08:27:30.449Z,78.20
2018-05-16T08:29:56.921Z,77.50
2018-05-16T08:32:23.345Z,77.70
2018-05-16T08:34:50.495Z,75.70
2018-05-16T08:37:17.594Z,76.30
2018-05-16T08:39:44.040Z,76.20
2018-05-16T08:42:10.461Z,76.20
2018-05-16T08:44:36.999Z,76.50
2018-05-16T08:47:03.389Z,75.70
2018-05-16T08:49:29.758Z,76.60
2018-05-16T08:51:56.358Z,76.80
2018-05-16T08:54:22.754Z,76.80
2018-05-16T08:56:49.921Z,76.50
2018-05-16T08:59:16.450Z,76.50
2018-05-16T09:01:43.685Z,77.70
2018-05-16T09:04:10.856Z,76.30
2018-05-16T09:06:37.990Z,76.20
2018-05-16T09:09:04.466Z,76.20
2018-05-16T09:11:31.208Z,76.90
2018-05-16T09:13:57.778Z,76.90
2018-05-16T09:16:24.461Z,76.30
2018-05-16T09:18:51.917Z,75.70
2018-05-16T09:21:19.095Z,74.80
2018-05-16T09:23:45.555Z,74.80
2018-05-16T09:26:11.969Z,73.80
2018-05-16T09:28:38.525Z,74.10
2018-05-16T09:31:04.966Z,71.00
2018-05-16T09:33:31.606Z,70.70
2018-05-16T09:35:58.028Z,70.10
2018-05-16T09:38:24.603Z,69.70
2018-05-16T09:40:51.785Z,73.00
2018-05-16T09:43:18.189Z,72.90
2018-05-16T09:45:46.497Z,72.60
2018-05-16T09:48:12.871Z,72.60
2018-05-16T09:50:40.765Z,71.70
2018-05-16T09:53:08.282Z,74.00
2018-05-16T09:55:34.833Z,72.80
2018-05-16T09:58:01.768Z,72.70
2018-05-16T10:00:28.955Z,73.80
2018-05-16T10:02:56.425Z,73.80
2018-05-16T10:05:22.844Z,73.70
2018-05-16T10:07:49.314Z,72.00
2018-05-16T10:10:15.822Z,72.00
2018-05-16T10:12:43.070Z,72.60
2018-05-16T10:15:09.549Z,72.60
2018-05-16T10:17:35.945Z,71.20
2018-05-16T10:20:02.684Z,71.30
2018-05-16T10:22:29.120Z,71.70
2018-05-16T10:24:55.516Z,70.80
2018-05-16T10:27:23.701Z,71.80
2018-05-16T10:29:50.888Z,71.80
2018-05-16T10:32:17.611Z,69.90
2018-05-16T10:34:45.184Z,71.80
2018-05-16T10:37:11.608Z,71.80
2018-05-16T10:39:38.448Z,71.20
2018-05-16T10:42:07.137Z,69.30
2018-05-16T10:44:33.881Z,68.40
2018-05-16T10:47:00.702Z,69.90
2018-05-16T10:49:28.205Z,69.30
2018-05-16T10:51:54.977Z,67.20
2018-05-16T10:54:21.395Z,66.10
2018-05-16T10:56:48.052Z,65.40
2018-05-16T10:59:16.081Z,66.20
2018-05-16T11:01:43.214Z,66.90
2018-05-16T11:04:10.210Z,65.50
2018-05-16T11:06:36.654Z,64.30
2018-05-16T11:09:05.622Z,64.70
2018-05-16T11:11:32.469Z,62.50
2018-05-16T11:13:59.983Z,63.80
2018-05-16T11:16:26.463Z,63.80
2018-05-16T11:18:52.929Z,63.60
2018-05-16T11:21:20.187Z,62.60
2018-05-16T11:23:46.707Z,62.20
2018-05-16T11:26:14.007Z,61.20
2018-05-16T11:28:40.523Z,61.10
2018-05-16T11:31:06.959Z,62.70
2018-05-16T11:33:33.365Z,64.20
2018-05-16T11:36:01.101Z,64.80
2018-05-16T11:38:27.557Z,65.00
2018-05-16T11:40:55.040Z,69.60
2018-05-16T11:43:21.452Z,68.90
2018-05-16T11:45:48.720Z,72.90
2018-05-16T11:48:15.973Z,73.60
2018-05-16T11:50:43.118Z,71.60
2018-05-16T11:53:10.331Z,71.70
2018-05-16T11:55:36.775Z,71.70
2018-05-16T11:58:03.292Z,71.10
2018-05-16T12:00:29.708Z,70.70
2018-05-16T12:02:56.219Z,69.00
2018-05-16T12:05:23.608Z,67.50
2018-05-16T12:07:50.122Z,67.50
2018-05-16T12:10:16.607Z,67.60
2018-05-16T12:12:43.147Z,66.80
2018-05-16T12:15:09.553Z,64.40
2018-05-16T12:17:36.053Z,63.00
2018-05-16T12:20:02.455Z,61.90
2018-05-16T12:22:29.795Z,60.10
2018-05-16T12:24:57.709Z,59.60
2018-05-16T12:27:24.694Z,59.20
2018-05-16T12:29:51.469Z,55.90
2018-05-16T12:32:19.346Z,57.80
2018-05-16T12:34:45.963Z,57.90
2018-05-16T12:37:12.741Z,52.00
2018-05-16T12:39:39.232Z,53.70
2018-05-16T12:42:05.928Z,52.60
2018-05-16T12:44:32.370Z,52.20
2018-05-16T12:46:59.304Z,51.00
2018-05-16T12:49:26.190Z,51.50
2018-05-16T12:51:52.740Z,51.20
2018-05-16T12:54:19.624Z,51.30
2018-05-16T12:56:46.113Z,51.10
2018-05-16T12:59:12.698Z,52.50
2018-05-16T13:01:39.501Z,53.00
2018-05-16T13:04:06.849Z,53.20
2018-05-16T13:06:34.036Z,54.00
2018-05-16T13:09:00.769Z,54.00
2018-05-16T13:11:27.344Z,55.70
2018-05-16T13:13:54.337Z,51.80
2018-05-16T13:16:21.551Z,47.00
2018-05-16T13:18:48.467Z,48.50
2018-05-16T13:21:15.074Z,49.00
2018-05-16T13:23:42.590Z,48.80
2018-05-16T13:26:09.039Z,51.00
2018-05-16T13:28:35.425Z,51.10
2018-05-16T13:31:01.827Z,48.20
2018-05-16T13:33:29.021Z,46.50
2018-05-16T13:35:55.445Z,46.20
2018-05-16T13:38:21.881Z,46.00
2018-05-16T13:40:48.299Z,45.30
2018-05-16T13:43:14.905Z,46.80
2018-05-16T13:45:42.057Z,51.50
2018-05-16T13:48:09.193Z,51.70
2018-05-16T13:50:42.627Z,51.70
2018-05-16T13:53:09.315Z,51.40
2018-05-16T13:55:35.730Z,51.10
2018-05-16T13:58:02.155Z,51.00
2018-05-16T14:00:28.785Z,49.30
2018-05-16T14:02:55.304Z,46.30
2018-05-16T14:05:21.749Z,44.40
2018-05-16T14:07:48.515Z,40.70
2018-05-16T14:10:15.080Z,39.30
2018-05-16T14:12:42.177Z,40.30
2018-05-16T14:15:09.393Z,40.30
2018-05-16T14:17:36.700Z,40.20
2018-05-16T14:20:03.391Z,40.10
2018-05-16T14:22:29.914Z,42.60
2018-05-16T14:24:57.159Z,42.50
2018-05-16T14:27:23.576Z,42.50
2018-05-16T14:29:49.971Z,44.80
2018-05-16T14:32:16.424Z,44.70
2018-05-16T14:34:42.961Z,45.50
2018-05-16T14:37:09.384Z,47.50
2018-05-16T14:39:35.826Z,49.40
2018-05-16T14:42:02.229Z,50.90
2018-05-16T14:44:29.066Z,51.10
2018-05-16T14:46:55.493Z,50.80
2018-05-16T14:49:22.719Z,50.00
2018-05-16T14:51:49.726Z,51.20
2018-05-16T14:54:17.830Z,53.70
2018-05-16T14:56:44.330Z,53.70
2018-05-16T14:59:10.734Z,54.80
2018-05-16T15:01:37.645Z,54.60
2018-05-16T15:04:04.322Z,55.00
2018-05-16T15:06:30.780Z,57.40
2018-05-16T15:08:57.165Z,58.90
2018-05-16T15:11:24.311Z,62.90
2018-05-16T15:13:51.731Z,65.40
2018-05-16T15:16:18.256Z,65.40
2018-05-16T15:18:45.086Z,67.20
2018-05-16T15:21:11.525Z,68.60
2018-05-16T15:23:37.960Z,68.80
2018-05-16T15:26:04.894Z,67.90
2018-05-16T15:28:31.337Z,68.60
2018-05-16T15:30:58.146Z,70.00
2018-05-16T15:33:25.595Z,71.20
2018-05-16T15:35:52.946Z,69.60
2018-05-16T15:38:20.232Z,69.90
2018-05-16T15:40:46.633Z,69.90
2018-05-16T15:43:13.809Z,70.30
2018-05-16T15:45:40.297Z,70.30
2018-05-16T15:48:07.060Z,70.60
2018-05-16T15:50:34.357Z,67.70
2018-05-16T15:53:01.206Z,67.70
2018-05-16T15:55:27.891Z,66.30
2018-05-16T15:57:55.023Z,64.80
2018-05-16T16:00:22.472Z,60.20
2018-05-16T16:02:49.404Z,60.20
2018-05-16T16:05:16.442Z,56.80
2018-05-16T16:07:43.513Z,57.20
2018-05-16T16:10:09.949Z,58.60
2018-05-16T16:12:36.383Z,58.70
2018-05-16T16:15:02.938Z,57.90
2018-05-16T16:17:30.375Z,58.90
2018-05-16T16:19:56.866Z,58.90
2018-05-16T16:22:23.283Z,60.30
2018-05-16T16:24:49.845Z,61.20
2018-05-16T16:27:16.371Z,61.00
2018-05-16T16:29:42.785Z,61.50
2018-05-16T16:32:09.193Z,61.10
2018-05-16T16:34:36.909Z,61.30
2018-05-16T16:37:03.334Z,61.30
2018-05-16T16:39:29.854Z,63.00
2018-05-16T16:41:56.580Z,63.20
2018-05-16T16:44:23.898Z,64.50
2018-05-16T16:46:57.469Z,64.50
2018-05-16T16:49:23.942Z,65.20
2018-05-16T16:51:51.409Z,64.40
2018-05-16T16:54:18.563Z,65.00
2018-05-16T16:56:46.094Z,65.20
2018-05-16T16:59:12.716Z,65.10
2018-05-16T17:01:39.534Z,66.80
2018-05-16T17:04:05.962Z,66.70
2018-05-16T17:06:32.762Z,66.00
2018-05-16T17:08:59.276Z,65.40
2018-05-16T17:11:26.535Z,63.70
2018-05-16T17:13:52.989Z,62.70
2018-05-16T17:16:21.032Z,60.50
2018-05-16T17:18:47.525Z,60.50
2018-05-16T17:21:14.860Z,61.20
2018-05-16T17:23:41.362Z,59.80
2018-05-16T17:26:07.812Z,58.90
2018-05-16T17:28:34.651Z,58.70
2018-05-16T17:31:01.944Z,62.20
2018-05-16T17:33:29.846Z,62.20
2018-05-16T17:35:56.384Z,60.60
2018-05-16T17:38:23.264Z,60.50
2018-05-16T17:40:49.743Z,57.70
2018-05-16T17:43:18.106Z,55.10
2018-05-16T17:45:44.600Z,57.00
2018-05-16T17:48:11.030Z,60.00
2018-05-16T17:50:37.801Z,60.70
2018-05-16T17:53:04.203Z,60.10
2018-05-16T17:55:30.682Z,60.50
2018-05-16T17:57:57.180Z,62.10
2018-05-16T18:00:24.475Z,63.40
2018-05-16T18:02:50.949Z,64.30
2018-05-16T18:05:17.485Z,64.70
2018-05-16T18:07:44.277Z,64.70
2018-05-16T18:10:10.766Z,66.40
2018-05-16T18:12:38.149Z,64.40
2018-05-16T18:15:24.365Z,62.20
2018-05-16T18:17:51.331Z,64.90
2018-05-16T18:20:18.605Z,64.90
2018-05-16T18:22:45.484Z,65.80
2018-05-16T18:25:12.039Z,65.20
2018-05-16T18:27:39.427Z,65.80
2018-05-16T18:30:06.385Z,65.90
2018-05-16T18:32:33.516Z,64.70
2018-05-16T18:35:01.003Z,64.60
2018-05-16T18:37:28.000Z,66.30
2018-05-16T18:39:54.984Z,66.10
2018-05-16T18:42:21.893Z,66.60
2018-05-16T18:44:48.316Z,66.50
2018-05-16T18:47:14.813Z,66.60
2018-05-16T18:49:42.606Z,66.10
2018-05-16T18:52:09.030Z,66.00
2018-05-16T18:54:36.535Z,67.30
2018-05-16T18:57:03.100Z,67.30
2018-05-16T18:59:30.431Z,69.00
2018-05-16T19:01:56.934Z,68.60
2018-05-16T19:04:23.348Z,69.50
2018-05-16T19:06:50.472Z,70.50
2018-05-16T19:09:17.662Z,71.80
2018-05-16T19:11:44.188Z,71.40
2018-05-16T19:14:10.804Z,72.10
2018-05-16T19:16:38.038Z,71.40
2018-05-16T19:19:04.465Z,71.40
2018-05-16T19:21:30.899Z,71.10
2018-05-16T19:23:57.578Z,71.00
2018-05-16T19:26:23.980Z,71.40
2018-05-16T19:28:50.491Z,71.90
2018-05-16T19:31:16.927Z,72.50
2018-05-16T19:33:43.447Z,71.90
2018-05-16T19:36:09.843Z,72.60
2018-05-16T19:38:37.016Z,72.90
2018-05-16T19:41:03.617Z,73.70
2018-05-16T19:43:30.216Z,73.30
2018-05-16T19:45:56.647Z,73.50
2018-05-16T19:48:23.022Z,72.30
2018-05-16T19:50:49.717Z,72.10
2018-05-16T19:53:16.151Z,71.10
2018-05-16T19:55:42.636Z,70.20
2018-05-16T19:58:09.847Z,70.40
2018-05-16T20:00:38.370Z,70.30
2018-05-16T20:03:05.721Z,71.20
2018-05-16T20:05:33.043Z,72.50
2018-05-16T20:07:59.880Z,72.40
2018-05-16T20:10:26.403Z,74.10
2018-05-16T20:12:53.676Z,73.60
2018-05-16T20:15:20.458Z,72.80
2018-05-16T20:17:46.892Z,73.90
2018-05-16T20:20:13.510Z,71.80
2018-05-16T20:22:41.289Z,73.80
2018-05-16T20:25:08.054Z,73.80
2018-05-16T20:27:34.522Z,74.20
2018-05-16T20:30:01.017Z,74.80
2018-05-16T20:32:27.700Z,73.20
2018-05-16T20:34:55.368Z,73.60
2018-05-16T20:37:21.986Z,73.50
2018-05-16T20:39:48.555Z,73.30
2018-05-16T20:42:15.871Z,75.10
2018-05-16T20:44:42.423Z,75.00
2018-05-16T20:47:09.014Z,75.30
2018-05-16T20:49:35.671Z,74.90
2018-05-16T20:52:02.472Z,74.80
2018-05-16T20:54:29.140Z,75.40
2018-05-16T20:56:55.889Z,75.00
2018-05-16T20:59:22.448Z,75.50
2018-05-16T21:01:49.466Z,75.60
2018-05-16T21:04:17.318Z,75.20
2018-05-16T21:06:46.136Z,75.80
2018-05-16T21:09:12.809Z,75.80
2018-05-16T21:11:40.706Z,76.40
2018-05-16T21:14:07.268Z,75.70
2018-05-16T21:16:34.120Z,74.50
2018-05-16T21:19:00.626Z,75.00
2018-05-16T21:21:27.074Z,75.50
2018-05-16T21:23:53.683Z,76.80
2018-05-16T21:26:21.465Z,76.60
2018-05-16T21:28:49.050Z,76.50
2018-05-16T21:31:15.478Z,75.90
2018-05-16T21:33:42.806Z,76.60
2018-05-16T21:36:09.588Z,77.10
2018-05-16T21:38:36.195Z,75.90
2018-05-16T21:41:02.842Z,76.10
2018-05-16T21:43:30.020Z,76.30
2018-05-16T21:45:56.601Z,76.30
2018-05-16T21:48:24.446Z,75.40
2018-05-16T21:50:51.642Z,75.80
2018-05-16T21:53:18.109Z,75.80
2018-05-16T21:55:45.414Z,75.40
2018-05-16T21:58:11.834Z,75.20
2018-05-16T22:00:39.051Z,75.20
2018-05-16T22:03:05.671Z,74.50
2018-05-16T22:05:32.297Z,71.10
2018-05-16T22:07:59.582Z,73.30
2018-05-16T22:10:26.106Z,74.40
2018-05-16T22:12:52.719Z,75.90
2018-05-16T22:15:19.233Z,75.80
2018-05-16T22:17:45.761Z,76.30
2018-05-16T22:20:13.153Z,75.70
2018-05-16T22:22:39.856Z,75.20
2018-05-16T22:25:06.250Z,76.80
2018-05-16T22:27:32.687Z,76.50
2018-05-16T22:30:00.009Z,75.80
2018-05-16T22:32:32.660Z,75.80
2018-05-16T22:35:05.130Z,75.80
2018-05-16T22:37:37.911Z,75.50
2018-05-16T22:40:12.514Z,74.20
2018-05-16T22:42:38.922Z,74.20
2018-05-16T22:45:05.418Z,73.90
2018-05-16T22:47:31.906Z,75.00
2018-05-16T22:49:58.384Z,73.50
2018-05-16T22:52:24.813Z,73.50
2018-05-16T22:54:51.292Z,73.50
2018-05-16T22:57:17.670Z,74.10
2018-05-16T22:59:44.090Z,73.50
2018-05-16T23:02:12.475Z,73.40
2018-05-16T23:04:39.637Z,73.30
2018-05-16T23:07:06.108Z,73.40
2018-05-16T23:09:32.547Z,73.30
2018-05-16T23:11:59.964Z,73.40
2018-05-16T23:14:26.371Z,73.40
2018-05-16T23:16:53.548Z,73.40
2018-05-16T23:19:19.941Z,73.40
2018-05-16T23:21:46.347Z,73.40
2018-05-16T23:24:12.706Z,73.10
2018-05-16T23:26:39.365Z,73.00
2018-05-16T23:29:06.532Z,73.40
2018-05-16T23:31:32.965Z,73.20
2018-05-16T23:33:59.360Z,72.10
2018-05-16T23:36:27.270Z,72.30
2018-05-16T23:38:53.717Z,72.20
2018-05-16T23:41:20.093Z,72.60
2018-05-16T23:43:46.451Z,72.70
2018-05-16T23:46:12.853Z,73.50
2018-05-16T23:48:39.275Z,72.60
2018-05-16T23:51:05.702Z,72.40
2018-05-16T23:53:32.128Z,72.40
2018-05-16T23:55:58.529Z,72.50
2018-05-16T23:58:24.909Z,72.50
